createdAt,value
2022-08-10T00:00:20.513Z,17.70
2022-08-10T00:02:59.674Z,17.70
2022-08-10T00:05:28.380Z,17.60
2022-08-10T00:08:10.962Z,17.60
2022-08-10T00:10:55.234Z,17.60
2022-08-10T00:13:25.758Z,17.50
2022-08-10T00:15:55.318Z,17.50
2022-08-10T00:18:35.015Z,17.50
2022-08-10T00:21:22.825Z,17.40
2022-08-10T00:23:54.252Z,17.40
2022-08-10T00:26:22.041Z,17.40
2022-08-10T00:28:49.216Z,17.30
2022-08-10T00:31:55.976Z,17.30
2022-08-10T00:34:28.900Z,17.20
2022-08-10T00:36:56.486Z,17.30
2022-08-10T00:39:23.502Z,17.20
2022-08-10T00:42:01.967Z,17.20
2022-08-10T00:44:40.663Z,17.20
2022-08-10T00:47:15.387Z,17.10
2022-08-10T00:49:58.774Z,17.10
2022-08-10T00:52:27.226Z,17.10
2022-08-10T00:54:54.992Z,17.10
2022-08-10T00:57:22.282Z,17.00
2022-08-10T01:00:10.039Z,17.00
2022-08-10T01:02:37.302Z,17.00
2022-08-10T01:05:08.596Z,17.00
2022-08-10T01:08:09.820Z,16.90
2022-08-10T01:10:53.766Z,16.90
2022-08-10T01:13:39.959Z,16.80
2022-08-10T01:16:24.141Z,16.80
2022-08-10T01:18:59.367Z,16.70
2022-08-10T01:21:56.750Z,16.70
2022-08-10T01:24:38.391Z,16.60
2022-08-10T01:27:30.211Z,16.60
2022-08-10T01:30:16.324Z,16.50
2022-08-10T01:32:50.272Z,16.50
2022-08-10T01:35:54.647Z,16.50
2022-08-10T01:38:40.313Z,16.50
2022-08-10T01:41:49.278Z,16.50
2022-08-10T01:44:45.521Z,16.40
2022-08-10T01:47:34.859Z,16.30
2022-08-10T01:50:18.651Z,16.30
2022-08-10T01:52:48.597Z,16.30
2022-08-10T01:55:17.433Z,16.30
2022-08-10T01:57:46.805Z,16.30
2022-08-10T02:00:16.852Z,16.30
2022-08-10T02:02:45.383Z,16.20
2022-08-10T02:05:13.463Z,16.20
2022-08-10T02:07:44.316Z,16.20
2022-08-10T02:10:49.207Z,16.10
2022-08-10T02:13:18.953Z,16.00
2022-08-10T02:16:02.295Z,16.00
2022-08-10T02:18:31.193Z,16.00
2022-08-10T02:21:37.791Z,15.90
2022-08-10T02:24:27.418Z,15.80
2022-08-10T02:26:59.753Z,15.80
2022-08-10T02:29:28.509Z,15.80
2022-08-10T02:31:56.971Z,15.80
2022-08-10T02:34:25.776Z,15.70
2022-08-10T02:36:56.025Z,15.70
2022-08-10T02:39:24.861Z,15.70
2022-08-10T02:42:18.762Z,15.70
2022-08-10T02:45:26.673Z,15.70
2022-08-10T02:48:16.344Z,15.70
2022-08-10T02:52:06.813Z,15.60
2022-08-10T02:54:28.452Z,15.60
2022-08-10T02:57:02.963Z,15.60
2022-08-10T02:59:39.594Z,15.60
2022-08-10T03:02:12.157Z,15.60
2022-08-10T03:04:55.117Z,15.60
2022-08-10T03:07:42.893Z,15.50
2022-08-10T03:10:22.501Z,15.50
2022-08-10T03:12:53.543Z,15.40
2022-08-10T03:15:22.271Z,15.40
2022-08-10T03:17:57.812Z,15.40
2022-08-10T03:20:37.686Z,15.30
2022-08-10T03:23:16.581Z,15.30
2022-08-10T03:25:53.064Z,15.30
2022-08-10T03:28:23.409Z,15.20
2022-08-10T03:30:51.582Z,15.20
2022-08-10T03:33:22.066Z,15.20
2022-08-10T03:36:43.417Z,15.10
2022-08-10T03:38:38.403Z,15.10
2022-08-10T03:42:08.184Z,15.10
2022-08-10T03:44:36.960Z,15.00
2022-08-10T03:47:16.015Z,15.00
2022-08-10T03:49:46.200Z,14.90
2022-08-10T03:52:14.696Z,14.90
2022-08-10T03:54:42.474Z,14.90
2022-08-10T03:57:10.199Z,14.90
2022-08-10T03:59:38.305Z,14.80
2022-08-10T04:02:44.495Z,14.80
2022-08-10T04:04:56.123Z,14.80
2022-08-10T04:07:23.261Z,14.80
2022-08-10T04:10:28.108Z,14.80
2022-08-10T04:12:56.324Z,14.70
2022-08-10T04:15:26.065Z,14.80
2022-08-10T04:18:01.125Z,14.80
2022-08-10T04:21:29.676Z,14.70
2022-08-10T04:24:00.529Z,14.70
2022-08-10T04:26:27.696Z,14.70
2022-08-10T04:28:55.092Z,14.70
2022-08-10T04:31:24.725Z,14.70
2022-08-10T04:33:54.582Z,14.70
2022-08-10T04:36:23.224Z,14.70
2022-08-10T04:38:52.346Z,14.70
2022-08-10T04:41:21.051Z,14.70
2022-08-10T04:43:48.201Z,14.60
2022-08-10T04:46:55.480Z,14.60
2022-08-10T04:49:02.274Z,14.60
2022-08-10T04:51:32.910Z,14.60
2022-08-10T04:54:04.825Z,14.60
2022-08-10T04:56:39.344Z,14.60
2022-08-10T04:59:08.550Z,14.60
2022-08-10T05:02:29.845Z,14.60
2022-08-10T05:04:43.468Z,14.60
2022-08-10T05:07:16.815Z,14.70
2022-08-10T05:10:02.605Z,14.70
2022-08-10T05:12:38.811Z,14.80
2022-08-10T05:15:11.952Z,14.90
2022-08-10T05:17:40.018Z,15.00
2022-08-10T05:20:11.887Z,15.10
2022-08-10T05:22:41.577Z,15.20
2022-08-10T05:25:14.219Z,15.30
2022-08-10T05:27:42.272Z,15.40
2022-08-10T05:30:17.808Z,15.50
2022-08-10T05:32:56.142Z,15.60
2022-08-10T05:35:28.751Z,15.80
2022-08-10T05:38:16.993Z,16.00
2022-08-10T05:41:22.446Z,16.10
2022-08-10T05:43:51.316Z,16.20
2022-08-10T05:46:21.124Z,16.40
2022-08-10T05:48:57.116Z,16.60
2022-08-10T05:51:28.080Z,16.70
2022-08-10T05:54:01.377Z,16.80
2022-08-10T05:56:56.422Z,16.90
2022-08-10T06:00:34.335Z,17.00
2022-08-10T06:02:36.436Z,17.20
2022-08-10T06:05:34.807Z,17.30
2022-08-10T06:08:19.290Z,17.50
2022-08-10T06:12:24.023Z,17.60
2022-08-10T06:14:13.370Z,17.80
2022-08-10T06:16:43.798Z,17.90
2022-08-10T06:19:12.042Z,18.10
2022-08-10T06:22:20.720Z,18.20
2022-08-10T06:25:18.424Z,18.30
2022-08-10T06:27:38.414Z,18.50
2022-08-10T06:30:20.528Z,18.70
2022-08-10T06:32:53.573Z,18.80
2022-08-10T06:35:21.892Z,18.90
2022-08-10T06:37:51.862Z,19.10
2022-08-10T06:44:38.822Z,19.40
2022-08-10T06:47:09.284Z,19.60
2022-08-10T06:49:38.762Z,19.70
2022-08-10T06:52:12.332Z,19.80
2022-08-10T06:54:45.539Z,19.90
2022-08-10T06:57:18.372Z,20.10
2022-08-10T06:59:49.083Z,20.30
2022-08-10T07:02:29.551Z,20.40
2022-08-10T07:05:02.837Z,20.70
2022-08-10T07:07:31.441Z,20.90
2022-08-10T07:10:03.634Z,21.10
2022-08-10T07:12:34.370Z,21.30
2022-08-10T07:15:03.200Z,21.50
2022-08-10T07:17:35.875Z,21.70
2022-08-10T07:20:09.406Z,21.90
2022-08-10T07:23:01.140Z,22.20
2022-08-10T07:25:28.557Z,22.30
2022-08-10T07:28:00.539Z,22.30
2022-08-10T07:30:38.073Z,22.30
2022-08-10T07:33:07.382Z,22.30
2022-08-10T07:35:42.688Z,22.50
2022-08-10T07:38:27.000Z,22.60
2022-08-10T07:44:29.953Z,22.80
2022-08-10T07:46:58.111Z,22.90
2022-08-10T07:49:28.347Z,23.00
2022-08-10T07:52:33.963Z,23.10
2022-08-10T07:55:03.101Z,23.20
2022-08-10T07:57:38.228Z,23.30
2022-08-10T08:00:13.768Z,23.40
2022-08-10T08:02:56.620Z,23.50
2022-08-10T08:05:51.788Z,23.60
2022-08-10T08:08:16.104Z,23.70
2022-08-10T08:10:46.731Z,23.80
2022-08-10T08:13:15.012Z,23.90
2022-08-10T08:16:18.750Z,23.90
2022-08-10T08:18:32.721Z,24.00
2022-08-10T08:21:07.702Z,24.10
2022-08-10T08:24:09.034Z,24.20
2022-08-10T08:26:46.113Z,24.30
2022-08-10T08:29:20.509Z,24.50
2022-08-10T08:32:26.235Z,24.60
2022-08-10T08:34:59.647Z,24.80
2022-08-10T08:38:32.043Z,24.80
2022-08-10T08:40:25.317Z,25.00
2022-08-10T08:43:04.913Z,25.10
2022-08-10T08:45:50.981Z,25.30
2022-08-10T08:49:12.899Z,25.40
2022-08-10T08:52:18.094Z,25.50
2022-08-10T08:55:03.095Z,25.70
2022-08-10T08:57:49.425Z,25.80
2022-08-10T09:00:45.101Z,25.80
2022-08-10T09:03:32.099Z,25.90
2022-08-10T09:06:08.059Z,25.90
2022-08-10T09:08:38.114Z,25.90
2022-08-10T09:11:13.966Z,26.00
2022-08-10T09:14:06.573Z,26.00
2022-08-10T09:17:11.861Z,26.00
2022-08-10T09:19:55.259Z,26.10
2022-08-10T09:22:37.802Z,26.20
2022-08-10T09:25:21.582Z,26.40
2022-08-10T09:28:00.693Z,26.50
2022-08-10T09:30:52.410Z,26.70
2022-08-10T09:36:28.852Z,26.80
2022-08-10T09:37:00.924Z,26.90
2022-08-10T09:40:58.213Z,27.00
2022-08-10T09:42:49.778Z,27.10
2022-08-10T09:45:36.176Z,27.30
2022-08-10T09:48:29.367Z,27.50
2022-08-10T09:53:49.597Z,27.80
2022-08-10T09:56:36.745Z,28.10
2022-08-10T10:00:01.630Z,28.30
2022-08-10T10:02:27.463Z,28.50
2022-08-10T10:04:54.349Z,28.80
2022-08-10T10:07:28.672Z,29.10
2022-08-10T10:10:03.519Z,29.20
2022-08-10T10:12:48.449Z,29.50
2022-08-10T10:15:31.312Z,29.60
2022-08-10T10:18:24.517Z,29.80
2022-08-10T10:21:23.967Z,29.90
2022-08-10T10:24:22.780Z,30.00
2022-08-10T10:27:21.544Z,30.20
2022-08-10T10:29:59.614Z,30.40
2022-08-10T10:32:42.242Z,30.70
2022-08-10T10:35:37.774Z,30.80
2022-08-10T10:38:09.221Z,30.90
2022-08-10T10:41:18.470Z,31.00
2022-08-10T10:44:12.554Z,31.20
2022-08-10T10:47:12.005Z,31.30
2022-08-10T10:49:53.651Z,31.40
2022-08-10T10:52:43.166Z,31.60
2022-08-10T10:55:25.224Z,31.80
2022-08-10T10:58:20.042Z,32.00
2022-08-10T11:01:14.383Z,32.30
2022-08-10T11:04:02.816Z,32.50
2022-08-10T11:06:48.502Z,32.70
2022-08-10T11:10:09.242Z,32.90
2022-08-10T11:12:46.775Z,33.20
2022-08-10T11:15:28.942Z,33.50
2022-08-10T11:18:21.148Z,33.70
2022-08-10T11:21:08.011Z,33.80
2022-08-10T11:24:42.504Z,33.90
2022-08-10T11:26:54.020Z,34.00
2022-08-10T11:29:24.684Z,34.20
2022-08-10T11:32:30.560Z,34.40
2022-08-10T11:35:11.183Z,34.70
2022-08-10T11:38:30.924Z,34.90
2022-08-10T11:40:53.620Z,35.20
2022-08-10T11:43:27.060Z,35.40
2022-08-10T11:46:16.504Z,35.40
2022-08-10T11:48:56.944Z,35.60
2022-08-10T11:51:51.403Z,35.80
2022-08-10T11:54:44.915Z,36.00
2022-08-10T11:57:16.038Z,36.10
2022-08-10T11:59:57.948Z,36.10
2022-08-10T12:02:33.030Z,36.30
2022-08-10T12:05:23.867Z,36.50
2022-08-10T12:10:02.057Z,36.70
2022-08-10T12:10:59.811Z,36.80
2022-08-10T12:13:37.662Z,36.80
2022-08-10T12:16:08.951Z,36.80
2022-08-10T12:18:51.322Z,36.90
2022-08-10T12:21:26.287Z,37.00
2022-08-10T12:24:25.823Z,37.20
2022-08-10T12:26:59.070Z,37.60
2022-08-10T12:29:37.054Z,37.80
2022-08-10T12:32:17.867Z,38.00
2022-08-10T12:35:17.983Z,38.20
2022-08-10T12:38:19.732Z,38.50
2022-08-10T12:40:53.572Z,38.70
2022-08-10T12:44:05.151Z,38.80
2022-08-10T12:46:49.063Z,38.90
2022-08-10T12:49:22.756Z,38.90
2022-08-10T12:52:22.127Z,39.00
2022-08-10T12:54:53.130Z,39.10
2022-08-10T12:57:24.585Z,39.20
2022-08-10T12:59:54.958Z,39.20
2022-08-10T13:02:28.572Z,39.40
2022-08-10T13:04:59.248Z,39.40
2022-08-10T13:08:03.797Z,39.40
2022-08-10T13:10:25.445Z,39.60
2022-08-10T13:12:56.714Z,39.80
2022-08-10T13:15:49.567Z,40.00
2022-08-10T13:18:29.151Z,40.30
2022-08-10T13:21:19.738Z,40.30
2022-08-10T13:24:03.615Z,40.50
2022-08-10T13:27:16.442Z,40.60
2022-08-10T13:29:36.257Z,40.60
2022-08-10T13:32:09.638Z,40.60
2022-08-10T13:34:45.090Z,40.60
2022-08-10T13:37:16.947Z,40.90
2022-08-10T13:39:58.870Z,41.20
2022-08-10T13:42:33.734Z,41.20
2022-08-10T13:45:10.200Z,41.20
2022-08-10T13:47:48.851Z,41.40
2022-08-10T13:50:34.832Z,41.50
2022-08-10T13:53:04.465Z,41.60
2022-08-10T13:55:55.304Z,41.60
2022-08-10T13:58:38.526Z,41.80
2022-08-10T14:01:10.070Z,42.10
2022-08-10T14:03:40.120Z,42.20
2022-08-10T14:06:12.953Z,42.30
2022-08-10T14:08:46.600Z,42.50
2022-08-10T14:11:17.468Z,42.50
2022-08-10T14:13:58.348Z,42.50
2022-08-10T14:16:26.072Z,42.70
2022-08-10T14:18:56.681Z,42.90
2022-08-10T14:21:23.964Z,42.90
2022-08-10T14:23:53.248Z,43.00
2022-08-10T14:26:28.467Z,43.20
2022-08-10T14:29:02.591Z,43.10
2022-08-10T14:31:33.752Z,43.20
2022-08-10T14:34:03.720Z,43.30
2022-08-10T14:37:00.407Z,43.10
2022-08-10T14:39:50.249Z,43.20
2022-08-10T14:42:30.655Z,43.40
2022-08-10T14:45:01.996Z,43.50
2022-08-10T14:47:52.318Z,43.40
2022-08-10T14:50:32.550Z,43.50
2022-08-10T14:53:27.257Z,43.40
2022-08-10T14:56:02.300Z,43.40
2022-08-10T14:58:33.092Z,43.60
2022-08-10T15:01:03.547Z,43.70
2022-08-10T15:03:58.407Z,43.80
2022-08-10T15:06:30.627Z,43.80
2022-08-10T15:09:19.143Z,43.80
2022-08-10T15:12:15.671Z,44.10
2022-08-10T15:14:43.620Z,44.20
2022-08-10T15:17:15.858Z,44.10
2022-08-10T15:20:04.158Z,44.10
2022-08-10T15:22:38.626Z,44.00
2022-08-10T15:25:17.741Z,44.00
2022-08-10T15:27:53.965Z,43.90
2022-08-10T15:30:32.039Z,43.80
2022-08-10T15:34:03.237Z,43.80
2022-08-10T15:36:33.778Z,43.90
2022-08-10T15:39:03.998Z,44.00
2022-08-10T15:41:57.761Z,43.80
2022-08-10T15:44:43.291Z,43.80
2022-08-10T15:47:25.164Z,43.70
2022-08-10T15:50:18.636Z,43.80
2022-08-10T15:53:02.176Z,43.60
2022-08-10T15:55:51.480Z,42.70
2022-08-10T15:58:40.481Z,41.60
2022-08-10T16:02:14.321Z,40.50
2022-08-10T16:04:11.838Z,39.00
2022-08-10T16:06:58.418Z,37.80
2022-08-10T16:10:23.093Z,36.90
2022-08-10T16:13:01.015Z,36.10
2022-08-10T16:15:32.026Z,35.20
2022-08-10T16:18:08.557Z,34.60
2022-08-10T16:20:57.822Z,34.10
2022-08-10T16:23:34.212Z,33.70
2022-08-10T16:26:27.089Z,33.40
2022-08-10T16:29:07.524Z,33.10
2022-08-10T16:32:01.714Z,32.90
2022-08-10T16:34:31.874Z,32.60
2022-08-10T16:37:04.063Z,32.40
2022-08-10T16:39:57.761Z,32.20
2022-08-10T16:42:31.112Z,32.10
2022-08-10T16:45:05.487Z,31.90
2022-08-10T16:47:37.961Z,31.80
2022-08-10T16:50:06.877Z,31.70
2022-08-10T16:52:35.098Z,31.60
2022-08-10T16:55:24.681Z,31.50
2022-08-10T16:57:59.259Z,31.30
2022-08-10T17:01:04.210Z,31.20
2022-08-10T17:04:07.124Z,31.00
2022-08-10T17:06:28.990Z,30.90
2022-08-10T17:08:59.360Z,30.80
2022-08-10T17:11:34.720Z,30.60
2022-08-10T17:14:06.788Z,30.40
2022-08-10T17:16:41.630Z,30.30
2022-08-10T17:19:18.851Z,30.10
2022-08-10T17:22:03.725Z,30.00
2022-08-10T17:24:37.712Z,29.80
2022-08-10T17:28:04.670Z,29.70
2022-08-10T17:30:33.796Z,29.60
2022-08-10T17:33:12.446Z,29.40
2022-08-10T17:35:42.336Z,29.30
2022-08-10T17:38:24.501Z,29.20
2022-08-10T17:41:03.686Z,29.00
2022-08-10T17:43:46.387Z,28.90
2022-08-10T17:46:26.460Z,28.90
2022-08-10T17:48:55.767Z,28.80
2022-08-10T17:51:28.793Z,28.60
2022-08-10T17:53:59.661Z,28.50
2022-08-10T17:56:40.084Z,28.40
2022-08-10T17:59:22.458Z,28.30
2022-08-10T18:02:10.275Z,28.20
2022-08-10T18:04:48.671Z,28.10
2022-08-10T18:07:16.567Z,28.00
2022-08-10T18:09:54.906Z,27.90
2022-08-10T18:12:36.043Z,27.80
2022-08-10T18:15:12.184Z,27.70
2022-08-10T18:17:45.240Z,27.60
2022-08-10T18:20:16.214Z,27.60
2022-08-10T18:22:49.677Z,27.50
2022-08-10T18:25:29.705Z,27.40
2022-08-10T18:28:01.477Z,27.20
2022-08-10T18:30:36.312Z,27.20
2022-08-10T18:33:09.012Z,27.10
2022-08-10T18:35:37.449Z,27.00
2022-08-10T18:38:06.690Z,26.90
2022-08-10T18:40:40.020Z,26.80
2022-08-10T18:44:07.216Z,26.70
2022-08-10T18:45:59.928Z,26.60
2022-08-10T18:48:41.895Z,26.50
2022-08-10T18:51:46.391Z,26.40
2022-08-10T18:54:44.441Z,26.20
2022-08-10T18:57:40.775Z,26.20
2022-08-10T19:01:05.279Z,26.10
2022-08-10T19:03:55.396Z,25.90
2022-08-10T19:06:53.029Z,25.70
2022-08-10T19:09:45.507Z,25.60
2022-08-10T19:12:31.406Z,25.50
2022-08-10T19:15:18.288Z,25.40
2022-08-10T19:18:03.948Z,25.20
2022-08-10T19:20:47.086Z,25.20
2022-08-10T19:23:28.916Z,25.10
2022-08-10T19:26:42.071Z,24.90
2022-08-10T19:30:10.758Z,24.80
2022-08-10T19:32:29.262Z,24.70
2022-08-10T19:35:24.979Z,24.60
2022-08-10T19:38:17.659Z,24.40
2022-08-10T19:41:44.505Z,24.30
2022-08-10T19:44:23.976Z,24.20
2022-08-10T19:47:02.947Z,24.20
2022-08-10T19:49:53.029Z,24.00
2022-08-10T19:52:28.823Z,23.90
2022-08-10T19:55:15.160Z,23.80
2022-08-10T19:58:20.652Z,23.70
2022-08-10T20:00:58.748Z,23.60
2022-08-10T20:03:35.943Z,23.50
2022-08-10T20:06:37.612Z,23.50
2022-08-10T20:09:42.463Z,23.30
2022-08-10T20:12:39.383Z,23.30
2022-08-10T20:15:10.927Z,23.20
2022-08-10T20:17:52.568Z,23.10
2022-08-10T20:20:52.009Z,23.00
2022-08-10T20:23:25.308Z,22.90
2022-08-10T20:26:09.751Z,22.90
2022-08-10T20:28:46.932Z,22.80
2022-08-10T20:31:29.477Z,22.70
2022-08-10T20:34:01.531Z,22.60
2022-08-10T20:36:36.411Z,22.60
2022-08-10T20:39:29.643Z,22.60
2022-08-10T20:42:22.052Z,22.50
2022-08-10T20:45:02.379Z,22.40
2022-08-10T20:47:55.192Z,22.40
2022-08-10T20:50:45.983Z,22.30
2022-08-10T20:53:16.818Z,22.20
2022-08-10T20:55:55.396Z,22.20
2022-08-10T20:58:45.788Z,22.10
2022-08-10T21:01:18.336Z,22.00
2022-08-10T21:04:13.197Z,22.00
2022-08-10T21:06:55.414Z,21.90
2022-08-10T21:09:28.922Z,21.90
2022-08-10T21:12:21.309Z,21.80
2022-08-10T21:15:17.937Z,21.70
2022-08-10T21:18:20.473Z,21.70
2022-08-10T21:21:09.568Z,21.60
2022-08-10T21:23:46.503Z,21.60
2022-08-10T21:26:29.471Z,21.50
2022-08-10T21:29:06.924Z,21.50
2022-08-10T21:32:12.149Z,21.50
2022-08-10T21:35:02.383Z,21.40
2022-08-10T21:37:56.588Z,21.30
2022-08-10T21:41:17.007Z,21.30
2022-08-10T21:44:08.600Z,21.30
2022-08-10T21:47:31.020Z,21.20
2022-08-10T21:50:29.355Z,21.10
2022-08-10T21:53:44.131Z,21.10
2022-08-10T21:56:50.484Z,21.00
2022-08-10T21:59:56.648Z,20.90
2022-08-10T22:02:51.641Z,20.90
2022-08-10T22:05:51.609Z,20.90
2022-08-10T22:08:44.509Z,20.80
2022-08-10T22:11:39.052Z,20.80
2022-08-10T22:14:33.695Z,20.70
2022-08-10T22:18:01.207Z,20.70
2022-08-10T22:20:35.730Z,20.60
2022-08-10T22:23:46.683Z,20.60
2022-08-10T22:27:11.696Z,20.50
2022-08-10T22:35:10.432Z,20.30
2022-08-10T22:38:14.386Z,20.20
2022-08-10T22:41:04.826Z,20.20
2022-08-10T22:43:53.483Z,20.10
2022-08-10T22:46:43.483Z,20.10
2022-08-10T22:49:10.798Z,20.00
2022-08-10T22:51:42.440Z,19.90
2022-08-10T22:54:34.225Z,19.90
2022-08-10T22:57:21.506Z,19.80
2022-08-10T22:59:49.696Z,19.80
2022-08-10T23:02:32.484Z,19.80
2022-08-10T23:05:06.077Z,19.70
2022-08-10T23:07:35.836Z,19.60
2022-08-10T23:10:41.427Z,19.70
2022-08-10T23:13:26.380Z,19.50
2022-08-10T23:16:22.639Z,19.50
2022-08-10T23:19:10.891Z,19.50
2022-08-10T23:22:19.964Z,19.50
2022-08-10T23:25:04.798Z,19.30
2022-08-10T23:27:38.916Z,19.30
2022-08-10T23:30:17.762Z,19.30
2022-08-10T23:32:59.790Z,19.20
2022-08-10T23:36:31.339Z,19.10
2022-08-10T23:38:21.476Z,19.10
2022-08-10T23:40:53.052Z,19.00
2022-08-10T23:44:00.478Z,19.00
2022-08-10T23:46:24.384Z,18.90
2022-08-10T23:48:54.828Z,18.90
2022-08-10T23:52:00.929Z,18.80
2022-08-10T23:54:29.631Z,18.70
2022-08-10T23:57:00.689Z,18.70
2022-08-10T23:59:29.468Z,18.60
